Weather at Lugano Airport

Public forecast

Using degrees Celsius for public forecast. Weather courtesy of forecast.io.

Current aviation weather report (METAR) for Lugano Airport

Retrieved 2020/10/29 03:50 UTC (1 hour ago):

LSZA 290350Z AUTO VRB01KT 9999 NCD 06/05 Q1018

Closest aviation forecast (TAF) to Lugano Airport

Closest forecast is Malpensa International Airport, 23.7 nm (43.9 km) SSW. Retrieved 2020-10-29 00:25 UTC (5 hours ago):

TAF LIMC 282300Z 2900/3006 VRB05KT CAVOK TEMPO 2903/2908 0800 BCFG TEMPO 3000/3008 0400 BCFG